Time;durP1;ratioP1;P1;durP2;ratioP2;P2;SDS_P1;SDS_P2;PMS_P1;PMS_P2;Temp;Humidity;BMP_temperature;BMP_pressure;BME280_temperature;BME280_humidity;BME280_pressure;Samples;Min_cycle;Max_cycle;Signal;HPM_P1;HPM_P2
2022/11/05 00:10:36;;;;;;;16.55;12.15;;;;;;;6.62;72.28;100740.02;1701641;82;21131;-75
2022/11/05 00:18:33;;;;;;;19.17;12.80;;;;;;;6.55;71.91;100740.62;1703769;82;21098;-74
2022/11/05 00:20:59;;;;;;;16.57;12.88;;;;;;;6.54;71.90;100735.01;1705443;82;20976;-74
2022/11/05 00:26:11;;;;;;;16.70;13.50;;;;;;;6.56;71.86;100743.56;1678186;84;21123;-74
2022/11/05 00:28:42;;;;;;;19.57;13.98;;;;;;;6.53;71.75;100740.84;1679101;82;21582;-74
2022/11/05 00:31:13;;;;;;;17.42;12.90;;;;;;;6.51;71.69;100746.07;1668650;85;21459;-74
2022/11/05 00:33:42;;;;;;;18.15;12.78;;;;;;;6.46;71.69;100744.11;1652712;86;21068;-75
2022/11/05 00:36:09;;;;;;;24.75;12.45;;;;;;;6.39;71.72;100743.39;1665428;86;21164;-74
2022/11/05 00:38:36;;;;;;;19.50;12.13;;;;;;;6.32;71.89;100739.50;1703751;84;21009;-75
2022/11/05 00:41:03;;;;;;;22.77;12.80;;;;;;;6.26;72.10;100735.60;1700018;84;21115;-75
2022/11/05 00:46:14;;;;;;;20.68;12.58;;;;;;;6.26;72.41;100735.08;1663902;86;21098;-75
2022/11/05 00:51:26;;;;;;;23.52;11.20;;;;;;;6.24;72.50;100733.16;1677512;84;21024;-75
2022/11/05 00:53:52;;;;;;;22.80;11.33;;;;;;;6.20;72.59;100733.32;1645745;86;21061;-74
2022/11/05 00:56:20;;;;;;;40.25;13.38;;;;;;;6.18;72.64;100731.92;1700956;82;21102;-74
2022/11/05 00:58:47;;;;;;;32.95;11.78;;;;;;;6.13;72.75;100736.58;1687795;84;21447;-74
2022/11/05 01:01:15;;;;;;;32.08;12.60;;;;;;;6.11;72.82;100735.98;1695489;82;21538;-74
2022/11/05 01:03:42;;;;;;;27.00;11.70;;;;;;;6.09;72.85;100739.39;1702633;84;21507;-74
2022/11/05 01:06:13;;;;;;;29.00;12.40;;;;;;;6.10;72.87;100738.34;1673208;84;21591;-74
2022/11/05 01:08:41;;;;;;;24.25;12.37;;;;;;;6.13;72.98;100742.40;1660215;84;21035;-74
2022/11/05 01:11:31;;;;;;;29.23;11.80;;;;;;;6.21;72.98;100752.17;1701430;82;21122;-75
2022/11/05 01:13:46;;;;;;;22.42;11.40;;;;;;;6.31;73.01;100752.97;1693713;82;21318;-73
2022/11/05 01:16:13;;;;;;;20.40;11.03;;;;;;;6.37;72.93;100749.42;1700734;84;21047;-74
2022/11/05 01:18:39;;;;;;;19.60;11.30;;;;;;;6.38;72.86;100752.88;1687599;84;21512;-74
2022/11/05 01:21:13;;;;;;;19.50;11.78;;;;;;;6.30;72.76;100749.52;1701961;82;21020;-74
2022/11/05 01:23:39;;;;;;;15.15;11.43;;;;;;;6.30;72.81;100747.38;1702454;82;21429;-74
2022/11/05 01:26:06;;;;;;;12.73;11.12;;;;;;;6.29;72.65;100747.09;1701078;84;21231;-74
2022/11/05 01:28:32;;;;;;;12.95;10.85;;;;;;;6.24;72.53;100753.58;1682118;82;21013;-74
2022/11/05 01:30:59;;;;;;;13.55;10.72;;;;;;;6.23;72.52;100757.27;1703162;82;21646;-75
2022/11/05 01:33:26;;;;;;;13.70;11.12;;;;;;;6.26;72.55;100757.62;1701523;84;21153;-73
2022/11/05 01:35:52;;;;;;;12.23;9.88;;;;;;;6.30;72.55;100756.14;1701913;82;21076;-73
2022/11/05 01:38:20;;;;;;;12.40;10.00;;;;;;;6.29;72.44;100755.05;1704010;83;22991;-74
2022/11/05 01:40:48;;;;;;;12.78;10.80;;;;;;;6.23;72.40;100754.09;1704676;84;20970;-74
2022/11/05 01:43:21;;;;;;;14.03;10.80;;;;;;;6.16;72.40;100752.05;1704359;82;21056;-74
2022/11/05 01:45:52;;;;;;;13.58;10.00;;;;;;;6.11;72.52;100745.26;1694144;84;21099;-74
2022/11/05 01:48:26;;;;;;;13.18;10.80;;;;;;;6.04;72.60;100751.97;1703182;84;21488;-74
2022/11/05 01:51:03;;;;;;;13.13;10.55;;;;;;;6.01;72.63;100754.26;1701313;82;21652;-74
2022/11/05 01:53:48;;;;;;;14.15;10.95;;;;;;;5.96;72.61;100750.95;1693970;84;21008;-73
2022/11/05 01:56:22;;;;;;;18.27;14.00;;;;;;;5.90;72.57;100750.48;1682772;84;21079;-74
2022/11/05 01:58:59;;;;;;;23.65;15.70;;;;;;;5.83;72.53;100757.18;1688722;82;21680;-74
2022/11/05 02:01:26;;;;;;;23.27;14.33;;;;;;;5.74;72.48;100758.49;1697596;82;21126;-75
2022/11/05 02:03:56;;;;;;;21.77;14.25;;;;;;;5.69;72.47;100758.33;1696576;82;21156;-74
2022/11/05 02:06:22;;;;;;;25.10;14.20;;;;;;;5.68;72.59;100756.72;1704605;84;21052;-74
2022/11/05 02:08:59;;;;;;;22.58;13.93;;;;;;;5.67;72.72;100756.43;1703484;82;21229;-75
2022/11/05 02:11:26;;;;;;;20.92;13.45;;;;;;;5.64;72.66;100754.22;1695837;84;20973;-73
2022/11/05 02:13:54;;;;;;;21.25;14.13;;;;;;;5.55;72.64;100754.20;1668368;84;21085;-74
2022/11/05 02:16:55;;;;;;;19.70;13.35;;;;;;;5.47;72.68;100759.80;1663958;84;21016;-74
2022/11/05 02:19:51;;;;;;;18.17;12.40;;;;;;;5.42;72.74;100763.08;1704130;84;21095;-74
2022/11/05 02:22:35;;;;;;;18.35;13.05;;;;;;;5.39;72.76;100759.02;1704527;84;21452;-74
2022/11/05 02:25:56;;;;;;;18.10;12.68;;;;;;;5.29;72.69;100758.70;1702949;82;21085;-74
2022/11/05 02:28:46;;;;;;;14.80;11.22;;;;;;;5.23;72.74;100758.75;1702318;84;21016;-73
2022/11/05 02:31:53;;;;;;;14.40;11.00;;;;;;;5.23;73.00;100764.05;1677850;84;21205;-74
2022/11/05 02:34:45;;;;;;;16.48;12.58;;;;;;;5.28;73.15;100753.64;1687978;82;21095;-74
2022/11/05 02:37:39;;;;;;;16.52;12.58;;;;;;;5.30;73.21;100756.89;1703113;82;21115;-74
2022/11/05 02:40:15;;;;;;;16.17;12.37;;;;;;;5.30;73.23;100757.70;1651143;85;21121;-75
2022/11/05 02:43:00;;;;;;;14.58;11.73;;;;;;;5.28;73.17;100757.09;1652133;86;20976;-75
2022/11/05 02:46:11;;;;;;;15.10;12.07;;;;;;;5.25;73.17;100755.39;1701527;84;21153;-74
2022/11/05 02:49:09;;;;;;;16.05;12.13;;;;;;;5.28;73.16;100745.69;1679725;84;21462;-74
2022/11/05 02:51:48;;;;;;;19.62;14.45;;;;;;;5.17;73.03;100740.08;1701021;82;21449;-73
2022/11/05 02:54:26;;;;;;;21.12;14.78;;;;;;;5.06;73.12;100735.98;1670825;85;21097;-74
2022/11/05 02:56:53;;;;;;;20.80;14.40;;;;;;;5.00;73.22;100732.87;1698420;84;21036;-73
2022/11/05 02:59:19;;;;;;;25.17;16.62;;;;;;;4.94;73.35;100736.69;1699328;84;21249;-74
2022/11/05 03:01:49;;;;;;;21.17;15.00;;;;;;;4.93;73.48;100733.73;1663676;84;21030;-74
2022/11/05 03:04:16;;;;;;;19.30;14.23;;;;;;;5.01;73.63;100742.45;1640655;84;21028;-74
2022/11/05 03:07:00;;;;;;;20.00;14.33;;;;;;;5.08;73.64;100745.34;1701400;82;21087;-74
2022/11/05 03:09:58;;;;;;;18.23;13.15;;;;;;;5.15;73.57;100750.06;1704650;83;21083;-73
2022/11/05 03:12:39;;;;;;;17.82;12.85;;;;;;;5.18;73.58;100748.30;1704764;84;21834;-74
2022/11/05 03:15:21;;;;;;;18.67;13.15;;;;;;;5.27;73.64;100754.16;1695644;82;21067;-74
2022/11/05 03:18:20;;;;;;;19.05;13.45;;;;;;;5.37;73.67;100757.12;1679446;84;21051;-74
2022/11/05 03:21:20;;;;;;;19.02;13.40;;;;;;;5.46;73.73;100760.80;1703982;84;21460;-74
2022/11/05 03:23:59;;;;;;;19.00;13.98;;;;;;;5.52;73.93;100771.33;1703742;84;21000;-75
2022/11/05 03:26:30;;;;;;;18.80;13.25;;;;;;;5.62;74.05;100781.44;1704627;84;21097;-74
2022/11/05 03:29:05;;;;;;;19.25;13.80;;;;;;;5.68;74.20;100775.78;1700059;84;21103;-74
2022/11/05 03:31:32;;;;;;;18.80;13.68;;;;;;;5.76;74.41;100775.00;1705285;83;21040;-74
2022/11/05 03:33:58;;;;;;;18.42;13.80;;;;;;;5.91;74.56;100769.84;1703863;84;21059;-75
2022/11/05 03:36:38;;;;;;;27.45;15.45;;;;;;;6.05;74.69;100772.14;1628832;85;21140;-74
2022/11/05 03:39:07;;;;;;;20.68;14.07;;;;;;;6.20;74.76;100776.28;1640409;86;21151;-74
2022/11/05 03:41:34;;;;;;;20.48;13.78;;;;;;;6.31;74.72;100780.30;1701136;84;21019;-75
2022/11/05 03:44:04;;;;;;;19.90;13.88;;;;;;;6.43;74.68;100782.22;1695864;84;21071;-74
2022/11/05 03:46:44;;;;;;;18.35;13.50;;;;;;;6.49;74.59;100787.96;1674003;85;21073;-74
2022/11/05 03:49:13;;;;;;;21.02;14.18;;;;;;;6.54;74.53;100787.56;1672907;85;22672;-75
2022/11/05 03:52:05;;;;;;;19.60;13.75;;;;;;;6.56;74.43;100776.73;1698250;84;21220;-73
2022/11/05 03:54:32;;;;;;;18.25;13.22;;;;;;;6.59;74.48;100781.59;1710174;84;21071;-74
2022/11/05 03:57:24;;;;;;;28.47;13.93;;;;;;;6.62;74.52;100782.48;1708134;84;20970;-74
2022/11/05 03:59:51;;;;;;;16.80;12.50;;;;;;;6.62;74.52;100781.16;1704158;84;21514;-74
2022/11/05 04:02:19;;;;;;;21.68;12.82;;;;;;;6.61;74.58;100788.80;1654899;85;21113;-74
2022/11/05 04:04:46;;;;;;;25.48;13.60;;;;;;;6.57;74.60;100783.66;1636573;86;21055;-74
2022/11/05 04:15:30;;;;;;;30.02;12.63;;;;;;;7.00;74.78;100791.94;1705150;84;21000;-73
2022/11/05 04:17:57;;;;;;;50.40;12.78;;;;;;;7.06;74.64;100792.36;1689789;82;21151;-75
2022/11/05 04:25:56;;;;;;;27.48;11.68;;;;;;;7.10;73.90;100788.72;1691083;82;21611;-74
2022/11/05 04:30:17;;;;;;;27.67;11.55;;;;;;;6.99;73.63;100791.12;1701403;84;21063;-75
2022/11/05 04:30:53;;;;;;;18.05;10.13;;;;;;;6.91;73.48;100798.59;1700033;82;21048;-74
2022/11/05 04:33:19;;;;;;;23.25;10.35;;;;;;;6.90;73.41;100799.13;1694327;82;20976;-74
2022/11/05 04:35:47;;;;;;;14.25;9.50;;;;;;;6.92;73.37;100805.02;1650870;84;21045;-74
2022/11/05 04:38:18;;;;;;;15.65;9.33;;;;;;;6.88;73.11;100811.00;1663490;84;21097;-74
2022/11/05 04:40:46;;;;;;;11.78;9.28;;;;;;;6.67;72.82;100817.10;1660224;84;21099;-74
2022/11/05 04:43:17;;;;;;;11.48;8.88;;;;;;;6.43;72.68;100814.86;1690909;82;21063;-74
2022/11/05 04:45:46;;;;;;;11.40;8.63;;;;;;;6.22;72.67;100814.81;1683211;82;21012;-75
2022/11/05 04:48:13;;;;;;;11.00;9.03;;;;;;;6.03;72.66;100822.47;1694438;82;21036;-74
2022/11/05 04:50:41;;;;;;;15.75;9.53;;;;;;;5.90;72.68;100828.69;1677982;84;21060;-74
2022/11/05 04:53:08;;;;;;;15.40;8.63;;;;;;;5.75;72.69;100830.34;1700622;82;21039;-74
2022/11/05 04:55:36;;;;;;;11.78;9.33;;;;;;;5.64;72.70;100835.04;1694973;82;21653;-73
2022/11/05 04:58:02;;;;;;;12.05;9.53;;;;;;;5.59;72.83;100836.19;1680150;82;21060;-75
2022/11/05 05:00:29;;;;;;;21.12;9.60;;;;;;;5.64;72.84;100840.34;1703210;82;21012;-75
2022/11/05 05:02:55;;;;;;;15.10;10.05;;;;;;;5.67;72.79;100847.86;1697063;83;20988;-74
2022/11/05 05:05:22;;;;;;;13.32;10.43;;;;;;;5.69;72.71;100852.41;1648498;87;21496;-75
2022/11/05 05:07:48;;;;;;;13.98;10.43;;;;;;;5.73;72.64;100858.92;1656143;86;21150;-74
2022/11/05 05:10:14;;;;;;;15.08;10.72;;;;;;;5.76;72.54;100854.52;1626266;85;21601;-74
2022/11/05 05:12:42;;;;;;;16.90;10.90;;;;;;;5.82;72.56;100860.77;1692676;82;21032;-74
2022/11/05 05:15:09;;;;;;;18.48;10.60;;;;;;;5.83;72.55;100868.51;1708190;82;21047;-74
2022/11/05 05:17:36;;;;;;;16.48;10.85;;;;;;;5.85;72.58;100874.39;1705940;82;21036;-74
2022/11/05 05:22:53;;;;;;;21.82;11.08;;;;;;;5.94;72.60;100880.27;1648110;85;21614;-75
2022/11/05 05:25:22;;;;;;;19.75;11.05;;;;;;;5.95;72.62;100889.03;1637929;87;21617;-75
2022/11/05 05:27:48;;;;;;;14.20;10.05;;;;;;;5.91;72.70;100876.69;1676891;85;20981;-74
2022/11/05 05:30:15;;;;;;;21.77;10.80;;;;;;;5.97;72.93;100888.30;1693547;84;21118;-74
2022/11/05 05:32:45;;;;;;;15.00;10.13;;;;;;;6.04;73.08;100889.05;1704873;84;21634;-74
2022/11/05 05:35:12;;;;;;;17.87;10.30;;;;;;;6.16;73.18;100892.61;1704104;84;21126;-73
2022/11/05 05:37:38;;;;;;;12.65;9.70;;;;;;;6.25;73.13;100888.65;1705255;84;21483;-75
2022/11/05 05:40:08;;;;;;;18.20;10.30;;;;;;;6.34;73.08;100887.82;1698340;84;21499;-74
2022/11/05 05:42:35;;;;;;;30.40;10.72;;;;;;;6.28;72.80;100892.16;1702511;84;20969;-75
2022/11/05 05:45:04;;;;;;;13.78;10.80;;;;;;;6.19;72.74;100888.72;1703910;84;21746;-75
2022/11/05 05:47:30;;;;;;;12.75;10.40;;;;;;;6.10;72.72;100886.85;1707647;84;21103;-74
2022/11/05 05:49:56;;;;;;;19.17;10.63;;;;;;;5.98;72.69;100892.05;1677605;84;21093;-74
2022/11/05 05:52:24;;;;;;;35.43;11.53;;;;;;;5.86;72.75;100895.91;1663277;84;21107;-74
2022/11/05 05:54:52;;;;;;;12.07;9.95;;;;;;;5.80;72.85;100904.73;1687090;84;21087;-75
2022/11/05 05:57:19;;;;;;;25.00;13.22;;;;;;;5.80;72.96;100902.59;1697046;82;21152;-75
2022/11/05 05:59:46;;;;;;;14.50;11.53;;;;;;;5.78;73.01;100901.98;1704916;84;21519;-74
2022/11/05 06:02:12;;;;;;;19.40;11.28;;;;;;;5.78;73.06;100902.80;1701953;82;21033;-75
2022/11/05 06:04:40;;;;;;;17.23;12.07;;;;;;;5.76;73.22;100904.03;1697354;84;21649;-75
2022/11/05 06:07:07;;;;;;;20.85;13.28;;;;;;;5.79;73.27;100904.92;1688617;84;20974;-75
2022/11/05 06:09:34;;;;;;;18.20;13.68;;;;;;;5.85;73.31;100910.17;1702813;84;21145;-74
2022/11/05 06:12:01;;;;;;;18.67;13.25;;;;;;;5.92;73.34;100918.59;1702145;82;21067;-75
2022/11/05 06:14:27;;;;;;;15.55;12.70;;;;;;;6.01;73.40;100919.98;1702348;82;21122;-74
2022/11/05 06:16:55;;;;;;;15.55;12.78;;;;;;;6.10;73.42;100921.33;1702060;82;21059;-74
2022/11/05 06:19:22;;;;;;;17.35;12.78;;;;;;;6.18;73.45;100923.69;1709895;84;20984;-75
2022/11/05 06:21:50;;;;;;;18.85;13.05;;;;;;;6.31;73.58;100928.05;1701396;82;21172;-74
2022/11/05 06:24:16;;;;;;;16.40;12.55;;;;;;;6.44;73.62;100935.07;1690928;82;21471;-73
2022/11/05 06:26:44;;;;;;;12.13;10.70;;;;;;;6.59;73.70;100931.55;1658771;85;21073;-75
2022/11/05 06:29:11;;;;;;;13.75;10.28;;;;;;;6.65;73.69;100926.69;1640773;84;21047;-74
2022/11/05 06:31:38;;;;;;;15.75;10.20;;;;;;;6.67;73.76;100931.23;1679273;82;20961;-74
2022/11/05 06:34:05;;;;;;;15.28;10.30;;;;;;;6.74;73.98;100931.97;1687683;82;21153;-73
2022/11/05 06:36:32;;;;;;;12.30;9.93;;;;;;;6.83;74.24;100937.00;1677964;82;21039;-74
2022/11/05 06:39:00;;;;;;;13.20;11.18;;;;;;;6.94;74.61;100940.22;1702459;82;21000;-74
2022/11/05 06:41:27;;;;;;;12.43;9.85;;;;;;;7.00;74.81;100935.34;1724998;82;20980;-74
2022/11/05 06:43:53;;;;;;;14.23;10.55;;;;;;;7.03;75.07;100934.38;1676280;84;21012;-74
2022/11/05 06:46:21;;;;;;;18.25;10.78;;;;;;;7.12;75.34;100944.19;1648076;87;21077;-73
2022/11/05 06:48:48;;;;;;;15.05;10.85;;;;;;;7.22;75.51;100950.30;1653514;86;21008;-74
2022/11/05 06:51:14;;;;;;;16.05;10.90;;;;;;;7.27;75.71;100944.61;1672313;85;21112;-74
2022/11/05 06:53:41;;;;;;;12.63;9.68;;;;;;;7.31;75.79;100944.16;1706201;83;21059;-73
2022/11/05 06:56:08;;;;;;;16.60;10.80;;;;;;;7.37;75.88;100945.89;1707704;84;21472;-75
2022/11/05 06:58:35;;;;;;;16.32;11.28;;;;;;;7.43;75.97;100948.45;1706865;84;21242;-73
2022/11/05 07:01:07;;;;;;;12.90;9.95;;;;;;;7.44;76.04;100941.31;1705733;83;21605;-73
2022/11/05 07:03:35;;;;;;;17.42;11.45;;;;;;;7.47;76.24;100948.84;1684832;84;21057;-73
2022/11/05 07:06:03;;;;;;;15.63;11.03;;;;;;;7.51;76.36;100952.66;1699180;84;21112;-74
2022/11/05 07:08:34;;;;;;;18.92;11.30;;;;;;;7.58;76.50;100948.05;1710213;83;21100;-74
2022/11/05 07:11:01;;;;;;;18.85;11.78;;;;;;;7.67;76.65;100945.36;1710015;83;22778;-75
2022/11/05 07:13:31;;;;;;;13.40;9.68;;;;;;;7.78;76.74;100950.92;1710142;83;21095;-75
2022/11/05 07:15:59;;;;;;;13.15;10.90;;;;;;;7.85;76.84;100952.44;1707505;82;21507;-74
2022/11/05 07:18:25;;;;;;;19.52;12.13;;;;;;;7.92;76.88;100964.30;1702145;82;21013;-73
2022/11/05 07:20:53;;;;;;;20.15;12.47;;;;;;;7.99;76.95;100964.50;1710242;84;21044;-75
2022/11/05 07:23:20;;;;;;;20.25;13.78;;;;;;;8.12;77.05;100976.75;1712187;84;21166;-74
2022/11/05 07:25:47;;;;;;;16.90;11.65;;;;;;;8.24;77.05;100978.09;1708960;82;21534;-73
2022/11/05 07:28:14;;;;;;;19.00;12.35;;;;;;;8.34;77.04;100972.20;1711383;82;21075;-73
2022/11/05 07:30:40;;;;;;;16.10;12.03;;;;;;;8.44;77.00;100979.11;1709220;82;21115;-73
2022/11/05 07:33:07;;;;;;;16.80;11.83;;;;;;;8.47;76.82;100976.52;1709637;84;21004;-73
2022/11/05 07:35:34;;;;;;;14.98;11.73;;;;;;;8.45;76.78;100973.55;1705434;84;21201;-73
2022/11/05 07:38:02;;;;;;;16.65;12.65;;;;;;;8.44;76.79;100970.60;1687727;82;21067;-74
2022/11/05 07:40:29;;;;;;;14.73;10.75;;;;;;;8.48;76.76;100966.14;1709581;84;21106;-72
2022/11/05 07:42:58;;;;;;;13.62;10.50;;;;;;;8.51;76.75;100975.00;1707575;82;21108;-74
2022/11/05 07:45:26;;;;;;;16.70;12.53;;;;;;;8.52;76.76;100967.29;1708683;84;21126;-74
2022/11/05 07:47:56;;;;;;;17.65;12.88;;;;;;;8.52;76.73;100960.11;1708426;82;21136;-74
2022/11/05 07:50:25;;;;;;;15.80;12.05;;;;;;;8.56;76.82;100963.14;1710137;82;21059;-72
2022/11/05 07:52:52;;;;;;;18.92;13.03;;;;;;;8.60;76.87;100958.44;1709300;82;21182;-72
2022/11/05 07:55:18;;;;;;;17.02;12.58;;;;;;;8.62;76.87;100963.02;1708254;82;21011;-72
2022/11/05 07:57:48;;;;;;;18.98;13.20;;;;;;;8.64;76.90;100970.23;1708332;83;21024;-72
2022/11/05 08:00:20;;;;;;;17.27;13.00;;;;;;;8.69;76.91;100975.69;1704597;84;21205;-73
2022/11/05 08:03:06;;;;;;;14.95;11.22;;;;;;;8.71;76.91;100969.30;1705937;82;21106;-73
2022/11/05 08:05:38;;;;;;;16.12;12.05;;;;;;;8.73;76.94;100971.22;1710429;84;21122;-73
2022/11/05 08:08:06;;;;;;;14.00;10.38;;;;;;;8.76;76.99;100970.75;1709795;84;21007;-73
2022/11/05 08:10:33;;;;;;;18.00;13.25;;;;;;;8.80;77.03;100975.36;1698066;84;21055;-73
2022/11/05 08:13:00;;;;;;;16.85;12.85;;;;;;;8.86;77.07;100974.95;1665040;85;21529;-73
2022/11/05 08:15:26;;;;;;;17.67;13.05;;;;;;;8.91;77.03;100978.52;1665927;86;21016;-72
2022/11/05 08:18:05;;;;;;;15.90;10.65;;;;;;;8.93;76.97;100980.96;1703658;82;21052;-73
2022/11/05 08:20:34;;;;;;;19.15;13.93;;;;;;;8.97;76.97;100978.11;1704452;83;21104;-73
2022/11/05 08:23:01;;;;;;;16.37;12.45;;;;;;;9.01;76.93;100979.77;1703686;84;21606;-73
2022/11/05 08:25:29;;;;;;;16.55;12.58;;;;;;;9.07;76.89;100984.97;1704103;82;21206;-73
2022/11/05 08:28:02;;;;;;;19.00;13.40;;;;;;;9.08;76.69;100991.94;1703422;82;21621;-73
2022/11/05 08:30:28;;;;;;;18.35;12.80;;;;;;;9.08;76.60;100992.44;1701792;82;21127;-73
2022/11/05 08:32:59;;;;;;;17.42;12.93;;;;;;;9.07;76.46;100985.50;1686428;82;21000;-73
2022/11/05 08:35:26;;;;;;;17.15;12.82;;;;;;;9.09;76.42;100986.08;1664855;85;21034;-73
2022/11/05 08:37:59;;;;;;;15.53;11.93;;;;;;;9.13;76.40;100985.36;1665006;84;21185;-73
2022/11/05 08:40:26;;;;;;;19.07;13.28;;;;;;;9.20;76.45;100980.42;1704142;82;21119;-72
2022/11/05 08:42:56;;;;;;;16.30;11.73;;;;;;;9.27;76.40;100982.42;1704156;82;21491;-73
2022/11/05 08:45:25;;;;;;;15.93;12.03;;;;;;;9.36;76.38;100992.99;1673853;83;21013;-73
2022/11/05 08:48:01;;;;;;;16.62;12.18;;;;;;;9.38;76.19;101007.71;1704467;84;21686;-73
2022/11/05 08:50:28;;;;;;;17.98;14.00;;;;;;;9.44;76.12;101009.92;1701184;84;21169;-73
2022/11/05 08:52:55;;;;;;;18.15;13.48;;;;;;;9.49;75.95;101011.38;1704402;84;21108;-72
2022/11/05 08:55:21;;;;;;;13.55;10.70;;;;;;;9.58;75.89;101015.80;1705356;84;21535;-73
2022/11/05 08:57:50;;;;;;;15.88;11.93;;;;;;;9.67;75.77;101024.21;1705001;84;21103;-73
2022/11/05 09:00:17;;;;;;;14.35;11.60;;;;;;;9.71;75.64;101014.70;1694452;84;21177;-73
2022/11/05 09:02:43;;;;;;;18.77;13.13;;;;;;;9.75;75.41;101021.98;1712007;84;21149;-73
2022/11/05 09:05:09;;;;;;;16.85;12.75;;;;;;;9.73;75.12;101017.92;1710252;84;21008;-75
2022/11/05 09:07:36;;;;;;;17.45;12.70;;;;;;;9.71;75.04;101018.18;1710200;84;21300;-74
2022/11/05 09:10:04;;;;;;;16.25;11.68;;;;;;;9.71;74.72;101012.04;1710142;84;21001;-73
2022/11/05 09:12:31;;;;;;;16.87;12.28;;;;;;;9.69;74.73;101006.13;1710258;84;20941;-74
2022/11/05 09:14:59;;;;;;;15.72;12.73;;;;;;;9.71;74.75;101011.52;1709866;84;21029;-73
2022/11/05 09:17:26;;;;;;;15.70;11.33;;;;;;;9.73;74.72;101013.39;1708173;84;20968;-73
2022/11/05 09:19:54;;;;;;;16.30;12.70;;;;;;;9.80;74.67;101014.58;1710151;84;21092;-74
2022/11/05 09:22:20;;;;;;;16.37;12.47;;;;;;;9.78;74.44;101008.16;1707028;82;21054;-73
2022/11/05 09:24:46;;;;;;;17.62;13.53;;;;;;;9.76;74.41;101009.45;1709114;84;21079;-74
2022/11/05 09:27:13;;;;;;;19.87;13.58;;;;;;;9.76;74.29;101013.45;1709240;84;21590;-73
2022/11/05 09:29:41;;;;;;;18.42;13.78;;;;;;;9.79;74.30;101011.63;1708868;82;21000;-73
2022/11/05 09:32:07;;;;;;;19.20;14.15;;;;;;;9.83;74.34;101010.91;1709477;84;21134;-74
2022/11/05 09:34:35;;;;;;;18.52;13.78;;;;;;;9.91;74.35;101011.58;1652326;85;21058;-73
2022/11/05 09:37:02;;;;;;;18.55;13.95;;;;;;;9.92;74.12;101016.66;1638994;87;21114;-74
2022/11/05 09:39:28;;;;;;;16.73;12.58;;;;;;;9.89;73.93;101014.48;1676389;85;22142;-75
2022/11/05 09:42:05;;;;;;;18.25;14.20;;;;;;;9.92;73.99;101015.86;1677395;84;21020;-74
2022/11/05 09:44:49;;;;;;;19.65;14.83;;;;;;;9.95;73.93;101021.52;1704518;82;21075;-73
2022/11/05 09:47:26;;;;;;;19.10;14.35;;;;;;;9.95;73.66;101036.20;1703962;82;21057;-73
2022/11/05 09:49:54;;;;;;;17.70;13.20;;;;;;;9.95;73.59;101034.86;1705151;84;21015;-74
2022/11/05 09:52:24;;;;;;;19.17;13.83;;;;;;;9.93;73.57;101032.95;1703291;82;21148;-74
2022/11/05 09:54:52;;;;;;;19.55;14.53;;;;;;;9.90;73.54;101034.77;1703992;82;21292;-74
2022/11/05 09:57:26;;;;;;;21.17;14.93;;;;;;;9.86;73.56;101040.30;1651681;85;21073;-74
2022/11/05 09:59:58;;;;;;;19.70;15.08;;;;;;;9.80;73.61;101034.59;1638983;87;21031;-73
2022/11/05 10:02:36;;;;;;;18.65;13.50;;;;;;;9.80;73.66;101028.72;1687665;84;21799;-74
2022/11/05 10:05:06;;;;;;;22.60;15.63;;;;;;;9.81;73.67;101029.56;1703193;82;21565;-73
2022/11/05 10:07:47;;;;;;;18.85;14.63;;;;;;;9.74;73.58;101033.70;1705217;84;20969;-73
2022/11/05 10:10:23;;;;;;;21.33;15.43;;;;;;;9.68;73.67;101037.33;1701812;84;21064;-74
2022/11/05 10:12:55;;;;;;;21.10;15.68;;;;;;;9.67;73.79;101040.22;1701011;84;21186;-75
2022/11/05 10:15:28;;;;;;;18.87;14.40;;;;;;;9.65;73.90;101040.47;1703771;84;21130;-75
2022/11/05 10:18:22;;;;;;;20.48;14.60;;;;;;;9.64;73.89;101037.53;1704427;82;21085;-75
2022/11/05 10:20:48;;;;;;;20.43;15.43;;;;;;;9.61;73.97;101039.33;1706756;84;21492;-74
2022/11/05 10:23:18;;;;;;;21.57;15.03;;;;;;;9.62;74.12;101036.41;1704735;84;21016;-75
2022/11/05 10:25:53;;;;;;;22.73;15.30;;;;;;;9.61;74.20;101038.80;1705280;84;21559;-75
2022/11/05 10:28:26;;;;;;;22.07;15.32;;;;;;;9.57;74.22;101046.97;1704098;82;20964;-74
2022/11/05 10:31:04;;;;;;;22.00;15.80;;;;;;;9.58;74.29;101041.95;1701007;82;21751;-75
2022/11/05 10:33:50;;;;;;;21.05;14.40;;;;;;;9.61;74.30;101032.14;1703757;84;20976;-76
2022/11/05 10:36:27;;;;;;;20.72;15.00;;;;;;;9.62;74.28;101032.41;1700720;82;21076;-74
2022/11/05 10:38:56;;;;;;;21.62;15.28;;;;;;;9.60;74.26;101026.50;1704418;82;21531;-75
2022/11/05 10:41:48;;;;;;;23.45;16.30;;;;;;;9.59;74.22;101026.75;1704356;82;21476;-75
2022/11/05 10:44:29;;;;;;;21.23;14.60;;;;;;;9.59;74.15;101024.08;1702253;82;21344;-75
2022/11/05 10:47:32;;;;;;;20.75;14.90;;;;;;;9.59;74.09;101018.75;1705287;84;20964;-74
2022/11/05 10:50:08;;;;;;;20.52;14.80;;;;;;;9.59;74.00;101024.89;1702428;82;21043;-75
2022/11/05 10:52:39;;;;;;;22.20;14.90;;;;;;;9.61;73.93;101024.14;1675426;85;21034;-75
2022/11/05 10:55:34;;;;;;;19.57;13.58;;;;;;;9.59;73.81;101027.55;1666206;86;21055;-74
2022/11/05 10:58:18;;;;;;;18.62;13.85;;;;;;;9.57;73.80;101034.97;1702450;84;21093;-75
2022/11/05 11:00:57;;;;;;;17.30;12.50;;;;;;;9.56;73.67;101047.23;1668120;84;21129;-75
2022/11/05 11:03:51;;;;;;;19.50;13.32;;;;;;;9.57;73.70;101046.97;1673277;85;21041;-77
2022/11/05 11:06:27;;;;;;;19.90;14.07;;;;;;;9.60;73.60;101049.70;1640935;84;21161;-75
2022/11/05 11:08:57;;;;;;;20.60;13.00;;;;;;;9.61;73.48;101055.34;1676321;85;21127;-75
2022/11/05 11:11:28;;;;;;;16.80;12.13;;;;;;;9.65;73.43;101053.80;1677019;85;21093;-74
2022/11/05 11:14:14;;;;;;;17.65;12.53;;;;;;;9.67;73.13;101053.55;1694977;82;20999;-74
2022/11/05 11:16:46;;;;;;;16.37;11.80;;;;;;;9.63;73.13;101054.03;1674631;85;21038;-75
2022/11/05 11:19:27;;;;;;;18.05;12.15;;;;;;;9.61;73.12;101052.14;1648834;86;21573;-76
2022/11/05 11:22:09;;;;;;;18.42;11.73;;;;;;;9.61;73.12;101056.14;1676803;85;21020;-75
2022/11/05 11:24:42;;;;;;;18.87;12.65;;;;;;;9.64;73.16;101057.53;1688348;82;21166;-75
2022/11/05 11:27:17;;;;;;;16.97;12.40;;;;;;;9.63;73.12;101058.03;1703932;84;21048;-74
2022/11/05 11:29:50;;;;;;;19.23;12.95;;;;;;;9.65;73.06;101060.47;1705016;84;21076;-73
2022/11/05 11:32:19;;;;;;;19.05;12.25;;;;;;;9.62;72.89;101055.09;1705420;84;21095;-75
2022/11/05 11:34:51;;;;;;;20.00;13.60;;;;;;;9.60;72.85;101062.50;1705310;84;21526;-77
2022/11/05 11:37:28;;;;;;;17.98;12.40;;;;;;;9.55;72.74;101065.09;1675974;85;21120;-75
2022/11/05 11:39:59;;;;;;;18.87;13.15;;;;;;;9.53;72.82;101065.03;1665587;86;21091;-74
2022/11/05 11:42:30;;;;;;;19.92;12.85;;;;;;;9.49;72.90;101069.23;1704518;84;21056;-75
2022/11/05 11:44:59;;;;;;;18.10;12.65;;;;;;;9.47;72.97;101066.78;1677321;85;21078;-74
2022/11/05 11:47:26;;;;;;;18.37;12.80;;;;;;;9.46;73.04;101071.84;1677207;85;21028;-75
2022/11/05 11:49:57;;;;;;;18.67;12.82;;;;;;;9.48;73.15;101078.28;1698811;82;21840;-75
2022/11/05 11:52:34;;;;;;;19.52;13.78;;;;;;;9.46;73.10;101077.17;1705190;84;21044;-75
2022/11/05 11:55:20;;;;;;;16.45;12.03;;;;;;;9.45;73.16;101070.23;1701456;82;21063;-74
2022/11/05 11:57:53;;;;;;;16.57;12.07;;;;;;;9.45;73.22;101068.89;1699988;84;21079;-75
2022/11/05 12:00:22;;;;;;;19.60;13.18;;;;;;;9.48;73.34;101067.09;1704083;84;21063;-75
2022/11/05 12:03:12;;;;;;;19.70;13.30;;;;;;;9.49;73.24;101070.56;1675784;85;21239;-76
2022/11/05 12:05:51;;;;;;;20.85;14.05;;;;;;;9.53;73.28;101066.36;1664883;84;21110;-75
2022/11/05 12:08:41;;;;;;;19.30;13.80;;;;;;;9.58;73.09;101071.81;1696102;84;21044;-75
2022/11/05 12:11:30;;;;;;;19.75;13.65;;;;;;;9.53;72.78;101074.37;1649660;87;21594;-75
2022/11/05 12:14:03;;;;;;;23.00;14.30;;;;;;;9.48;72.75;101067.62;1649806;87;21043;-75
2022/11/05 12:17:01;;;;;;;17.80;12.53;;;;;;;9.50;72.83;101068.98;1680565;84;21198;-75
2022/11/05 12:20:01;;;;;;;21.12;13.45;;;;;;;9.49;72.83;101062.56;1673852;82;20969;-75